createdAt,value
2022-10-29T00:00:07.682Z,18.23999977
2022-10-29T00:01:12.782Z,18.23999977
2022-10-29T00:02:05.716Z,18.22999954
2022-10-29T00:03:05.584Z,18.20999908
2022-10-29T00:04:08.551Z,18.19000053
2022-10-29T00:05:08.721Z,18.18000031
2022-10-29T00:06:07.720Z,18.17000008
2022-10-29T00:07:06.609Z,18.14999962
2022-10-29T00:08:02.199Z,18.14999962
2022-10-29T00:09:02.954Z,18.12000084
2022-10-29T00:10:05.209Z,18.11000061
2022-10-29T00:11:02.376Z,18.09000015
2022-10-29T00:12:04.515Z,18.11000061
2022-10-29T00:12:56.546Z,18.14999962
2022-10-29T00:13:55.391Z,18.14999962
2022-10-29T00:14:51.040Z,18.14999962
2022-10-29T00:15:50.277Z,18.12999916
2022-10-29T00:16:45.481Z,18.12999916
2022-10-29T00:17:41.772Z,18.13999939
2022-10-29T00:18:41.472Z,18.12000084
2022-10-29T00:19:45.455Z,18.10000038
2022-10-29T00:20:48.889Z,18.07999992
2022-10-29T00:21:48.667Z,18.05999947
2022-10-29T00:22:47.213Z,18.07999992
2022-10-29T00:23:45.767Z,18.04999924
2022-10-29T00:24:45.250Z,18.03000069
2022-10-29T00:25:42.443Z,18.01000023
2022-10-29T00:26:44.746Z,18
2022-10-29T00:28:39.652Z,18.02000046
2022-10-29T00:29:31.693Z,18.02000046
2022-10-29T00:31:16.102Z,18.10000038
2022-10-29T00:32:01.598Z,18.15999985
2022-10-29T00:33:00.772Z,18.20000076
2022-10-29T00:33:57.553Z,18.17000008
2022-10-29T00:34:56.955Z,18.14999962
2022-10-29T00:35:51.437Z,18.12999916
2022-10-29T00:36:55.775Z,18.11000061
2022-10-29T00:37:51.094Z,18.11000061
2022-10-29T00:38:53.552Z,18.07999992
2022-10-29T00:39:55.555Z,18.04000092
2022-10-29T00:41:00.848Z,18.04000092
2022-10-29T00:42:03.544Z,18.02000046
2022-10-29T00:42:58.342Z,18.02000046
2022-10-29T00:43:59.133Z,18.01000023
2022-10-29T00:44:53.654Z,18
2022-10-29T00:45:54.906Z,17.98999977
2022-10-29T00:46:55.716Z,17.98999977
2022-10-29T00:48:05.732Z,18
2022-10-29T00:48:58.670Z,17.98999977
2022-10-29T00:49:59.082Z,17.98999977
2022-10-29T00:50:58.744Z,17.98999977
2022-10-29T00:51:54.847Z,17.96999931
2022-10-29T00:52:59.146Z,17.97999954
2022-10-29T00:53:51.750Z,17.96999931
2022-10-29T00:55:00.204Z,17.96999931
2022-10-29T00:56:03.516Z,17.96999931
2022-10-29T00:57:00.723Z,17.95999908
2022-10-29T00:59:00.042Z,17.97999954
2022-10-29T00:59:59.078Z,17.95999908
2022-10-29T01:01:57.666Z,18.01000023
2022-10-29T01:03:22.769Z,18.21999931
2022-10-29T01:04:22.913Z,18.23999977
2022-10-29T01:05:26.815Z,18.22999954
2022-10-29T01:06:22.240Z,18.20000076
2022-10-29T01:07:25.290Z,18.18000031
2022-10-29T01:08:20.118Z,18.13999939
2022-10-29T01:09:19.390Z,18.11000061
2022-10-29T01:10:14.684Z,18.09000015
2022-10-29T01:11:14.587Z,18.04999924
2022-10-29T01:12:14.541Z,18.04000092
2022-10-29T01:13:10.311Z,18.02000046
2022-10-29T01:14:14.129Z,17.97999954
2022-10-29T01:15:09.415Z,17.95999908
2022-10-29T01:16:08.478Z,17.95000076
2022-10-29T01:17:03.738Z,17.95000076
2022-10-29T01:18:04.265Z,17.95999908
2022-10-29T01:19:02.250Z,17.95000076
2022-10-29T01:20:06.973Z,17.93000031
2022-10-29T01:21:05.788Z,17.92000008
2022-10-29T01:22:04.139Z,17.92000008
2022-10-29T01:23:08.957Z,17.92000008
2022-10-29T01:24:06.200Z,17.89999962
2022-10-29T01:25:05.985Z,17.89999962
2022-10-29T01:26:05.887Z,17.88999939
2022-10-29T01:27:07.377Z,17.87999916
2022-10-29T01:28:07.316Z,17.88999939
2022-10-29T01:29:01.599Z,17.87999916
2022-10-29T01:30:04.323Z,17.89999962
2022-10-29T01:30:58.551Z,17.89999962
2022-10-29T01:31:59.682Z,17.89999962
2022-10-29T01:32:54.327Z,17.93000031
2022-10-29T01:33:54.062Z,17.92000008
2022-10-29T01:35:17.687Z,17.92000008
2022-10-29T01:35:58.140Z,17.94000053
2022-10-29T01:36:56.119Z,17.95999908
2022-10-29T01:39:04.756Z,17.95000076
2022-10-29T01:40:05.002Z,17.92000008
2022-10-29T01:41:04.092Z,17.88999939
2022-10-29T01:42:06.753Z,17.85000038
2022-10-29T01:43:00.409Z,17.84000015
2022-10-29T01:44:00.575Z,17.80999947
2022-10-29T01:44:56.992Z,17.79000092
2022-10-29T01:45:56.625Z,17.78000069
2022-10-29T01:46:54.659Z,17.77000046
2022-10-29T01:49:00.667Z,17.75
2022-10-29T01:50:02.175Z,17.71999931
2022-10-29T01:51:00.521Z,17.70999908
2022-10-29T01:51:53.257Z,17.72999954
2022-10-29T01:52:59.198Z,17.76000023
2022-10-29T01:53:52.503Z,17.73999977
2022-10-29T01:54:55.287Z,17.70999908
2022-10-29T01:55:52.948Z,17.68000031
2022-10-29T01:56:53.675Z,17.67000008
2022-10-29T01:57:50.113Z,17.67000008
2022-10-29T01:58:53.062Z,17.64999962
2022-10-29T02:00:05.067Z,17.62000084
2022-10-29T02:01:08.447Z,17.60000038
2022-10-29T02:02:05.709Z,17.60000038
2022-10-29T02:04:02.214Z,17.61000061
2022-10-29T02:05:04.471Z,17.60000038
2022-10-29T02:05:58.815Z,17.59000015
2022-10-29T02:06:59.495Z,17.60000038
2022-10-29T02:07:55.807Z,17.61000061
2022-10-29T02:08:55.361Z,17.57999992
2022-10-29T02:09:53.574Z,17.54999924
2022-10-29T02:11:25.412Z,17.53000069
2022-10-29T02:12:04.933Z,17.54999924
2022-10-29T02:13:04.993Z,17.60000038
2022-10-29T02:14:05.351Z,17.56999969
2022-10-29T02:15:01.499Z,17.54000092
2022-10-29T02:16:00.383Z,17.51000023
2022-10-29T02:17:02.080Z,17.48999977
2022-10-29T02:19:02.933Z,17.46999931
2022-10-29T02:19:58.238Z,17.45999908
2022-10-29T02:20:58.209Z,17.45000076
2022-10-29T02:21:59.934Z,17.43000031
2022-10-29T02:23:00.354Z,17.43000031
2022-10-29T02:23:56.621Z,17.42000008
2022-10-29T02:24:57.209Z,17.39999962
2022-10-29T02:25:54.066Z,17.38999939
2022-10-29T02:26:53.748Z,17.37999916
2022-10-29T02:27:50.539Z,17.39999962
2022-10-29T02:28:54.044Z,17.37999916
2022-10-29T02:29:55.730Z,17.39999962
2022-10-29T02:30:51.071Z,17.45000076
2022-10-29T02:31:55.478Z,17.46999931
2022-10-29T02:32:55.954Z,17.46999931
2022-10-29T02:33:55.650Z,17.44000053
2022-10-29T02:34:50.980Z,17.42000008
2022-10-29T02:35:51.749Z,17.39999962
2022-10-29T02:36:46.868Z,17.38999939
2022-10-29T02:37:44.332Z,17.39999962
2022-10-29T02:38:44.008Z,17.37000084
2022-10-29T02:39:42.365Z,17.35000038
2022-10-29T02:40:42.986Z,17.32999992
2022-10-29T02:41:38.282Z,17.31999969
2022-10-29T02:43:33.154Z,17.32999992
2022-10-29T02:45:16.979Z,17.37999916
2022-10-29T02:45:57.117Z,17.43000031
2022-10-29T02:46:59.435Z,17.45999908
2022-10-29T02:49:12.213Z,17.42000008
2022-10-29T02:50:12.617Z,17.37999916
2022-10-29T02:51:08.331Z,17.35000038
2022-10-29T02:52:07.765Z,17.34000015
2022-10-29T02:54:06.463Z,17.31999969
2022-10-29T02:54:59.046Z,17.30999947
2022-10-29T02:55:58.348Z,17.30999947
2022-10-29T02:56:56.756Z,17.29000092
2022-10-29T02:57:59.486Z,17.30999947
2022-10-29T02:58:54.488Z,17.31999969
2022-10-29T02:59:54.632Z,17.31999969
2022-10-29T03:01:03.888Z,17.29000092
2022-10-29T03:01:59.146Z,17.26000023
2022-10-29T03:03:09.529Z,17.25
2022-10-29T03:04:06.179Z,17.21999931
2022-10-29T03:05:06.589Z,17.19000053
2022-10-29T03:06:01.829Z,17.15999985
2022-10-29T03:07:03.904Z,17.15999985
2022-10-29T03:07:58.193Z,17.15999985
2022-10-29T03:09:01.491Z,17.15999985
2022-10-29T03:09:57.051Z,17.12999916
2022-10-29T03:10:59.008Z,17.12000084
2022-10-29T03:11:55.318Z,17.11000061
2022-10-29T03:13:50.480Z,17.11000061
2022-10-29T03:14:52.943Z,17.10000038
2022-10-29T03:15:50.318Z,17.07999992
2022-10-29T03:16:44.559Z,17.05999947
2022-10-29T03:17:46.381Z,17.09000015
2022-10-29T03:18:43.872Z,17.05999947
2022-10-29T03:19:45.605Z,17.05999947
2022-10-29T03:20:38.117Z,17.04999924
2022-10-29T03:22:57.063Z,17.22999954
2022-10-29T03:23:36.347Z,17.29999924
2022-10-29T03:24:37.722Z,17.30999947
2022-10-29T03:25:36.781Z,17.29000092
2022-10-29T03:26:35.459Z,17.25
2022-10-29T03:27:30.041Z,17.22999954
2022-10-29T03:28:31.762Z,17.19000053
2022-10-29T03:29:32.234Z,17.14999962
2022-10-29T03:30:27.623Z,17.12000084
2022-10-29T03:31:26.427Z,17.09000015
2022-10-29T03:32:24.523Z,17.09000015
2022-10-29T03:33:28.239Z,17.06999969
2022-10-29T03:34:23.869Z,17.03000069
2022-10-29T03:35:23.164Z,17.02000046
2022-10-29T08:17:51.307Z,21.80999947
2022-10-29T08:18:47.370Z,21.77000046
2022-10-29T08:19:50.926Z,21.61000061
2022-10-29T08:20:46.189Z,21.34000015
2022-10-29T08:21:46.431Z,21.09000015
2022-10-29T08:22:43.682Z,20.79000092
2022-10-29T08:23:48.594Z,20.54999924
2022-10-29T08:24:44.776Z,20.37999916
2022-10-29T08:25:48.233Z,20.18000031
2022-10-29T08:26:46.534Z,20.03000069
2022-10-29T08:27:43.911Z,19.89999962
2022-10-29T08:29:41.958Z,19.70000076
2022-10-29T08:30:47.144Z,19.62000084
2022-10-29T08:31:41.818Z,19.5
2022-10-29T08:32:41.304Z,19.42000008
2022-10-29T08:33:44.152Z,19.37000084
2022-10-29T08:34:44.746Z,19.29999924
2022-10-29T08:35:49.308Z,19.22999954
2022-10-29T08:36:42.329Z,19.20000076
2022-10-29T08:38:19.648Z,19.20999908
2022-10-29T08:38:59.508Z,19.20999908
2022-10-29T08:39:58.690Z,19.22999954
2022-10-29T08:40:59.575Z,19.20000076
2022-10-29T08:41:54.922Z,19.15999985
2022-10-29T08:42:57.075Z,19.12000084
2022-10-29T08:43:56.359Z,19.07999992
2022-10-29T08:44:57.590Z,19.04999924
2022-10-29T08:45:52.779Z,19.01000023
2022-10-29T08:46:53.398Z,18.98999977
2022-10-29T08:47:49.250Z,18.96999931
2022-10-29T08:48:49.251Z,18.95000076
2022-10-29T08:49:44.746Z,18.93000031
2022-10-29T08:50:43.816Z,18.90999985
2022-10-29T08:51:39.082Z,18.90999985
2022-10-29T08:52:53.039Z,18.87999916
2022-10-29T08:52:53.219Z,18.87999916
2022-10-29T08:53:39.583Z,18.89999962
2022-10-29T08:54:35.520Z,18.94000053
2022-10-29T08:55:38.194Z,18.95999908
2022-10-29T08:56:39.845Z,18.94000053
2022-10-29T08:57:35.417Z,18.92000008
2022-10-29T08:59:31.017Z,18.92000008
2022-10-29T09:00:32.091Z,18.93000031
2022-10-29T09:01:29.279Z,18.92000008
2022-10-29T09:02:31.471Z,18.92000008
2022-10-29T09:03:25.682Z,18.93000031
2022-10-29T09:04:30.781Z,18.93000031
2022-10-29T09:05:23.302Z,18.93000031
2022-10-29T09:06:20.408Z,18.95000076
2022-10-29T09:07:18.308Z,18.94000053
2022-10-29T09:08:20.109Z,18.94000053
2022-10-29T09:09:12.611Z,18.94000053
2022-10-29T09:10:17.938Z,18.95000076
2022-10-29T09:11:11.797Z,18.95999908
2022-10-29T09:12:16.506Z,18.97999954
2022-10-29T09:13:11.661Z,19
2022-10-29T09:14:10.543Z,19.01000023
2022-10-29T09:15:08.590Z,19.01000023
2022-10-29T09:16:08.162Z,19.02000046
2022-10-29T09:17:05.396Z,19.03000069
2022-10-29T09:18:50.912Z,19.12000084
2022-10-29T09:19:30.923Z,19.18000031
2022-10-29T09:20:28.818Z,19.22999954
2022-10-29T09:27:55.699Z,20.86000061
2022-10-29T09:28:53.935Z,20.95999908
2022-10-29T09:30:02.776Z,20.82999992
2022-10-29T09:30:58.338Z,20.70000076
2022-10-29T09:31:59.864Z,20.56999969
2022-10-29T09:32:55.349Z,20.37999916
2022-10-29T09:34:01.658Z,20.28000069
2022-10-29T09:35:00.103Z,20.15999985
2022-10-29T09:35:57.431Z,20.05999947
2022-10-29T09:36:57.276Z,19.95999908
2022-10-29T09:37:52.743Z,19.90999985
2022-10-29T09:39:50.577Z,19.87000084
2022-10-29T09:40:53.450Z,19.86000061
2022-10-29T09:41:46.351Z,19.82999992
2022-10-29T09:42:51.894Z,19.79000092
2022-10-29T09:43:53.539Z,19.76000023
2022-10-29T09:44:49.952Z,19.71999931
2022-10-29T09:45:51.253Z,19.69000053
2022-10-29T09:46:48.766Z,19.65999985
2022-10-29T09:47:49.060Z,19.64999962
2022-10-29T09:48:43.704Z,19.62999916
2022-10-29T09:49:51.412Z,19.62999916
2022-10-29T09:50:43.811Z,19.62000084
2022-10-29T09:51:44.085Z,19.61000061
2022-10-29T09:52:41.567Z,19.62000084
2022-10-29T09:54:42.471Z,19.60000038
2022-10-29T09:55:47.492Z,19.59000015
2022-10-29T09:56:40.813Z,19.60000038
2022-10-29T09:57:45.352Z,19.59000015
2022-10-29T09:59:40.505Z,19.61000061
2022-10-29T10:00:43.048Z,19.62000084
2022-10-29T10:01:40.849Z,19.62999916
2022-10-29T10:02:44.141Z,19.62000084
2022-10-29T10:04:41.012Z,19.63999939
2022-10-29T10:05:36.118Z,19.63999939
2022-10-29T10:06:40.636Z,19.64999962
2022-10-29T10:07:36.134Z,19.67000008
2022-10-29T10:10:16.449Z,19.84000015
2022-10-29T10:11:13.083Z,20.14999962
2022-10-29T10:12:18.003Z,20.39999962
2022-10-29T10:14:03.777Z,20.47999954
2022-10-29T10:14:45.798Z,20.51000023
2022-10-29T10:15:47.614Z,20.46999931
2022-10-29T10:16:43.846Z,20.39999962
2022-10-29T10:17:42.171Z,20.31999969
2022-10-29T10:18:36.511Z,20.25
2022-10-29T10:19:34.378Z,20.18000031
2022-10-29T10:20:33.280Z,20.13999939
2022-10-29T10:21:27.674Z,20.10000038
2022-10-29T10:22:28.567Z,20.06999969
2022-10-29T10:23:19.868Z,20.04000092
2022-10-29T10:24:18.541Z,20.03000069
2022-10-29T10:25:12.429Z,20.02000046
2022-10-29T10:26:11.127Z,20
2022-10-29T10:27:05.055Z,19.97999954
2022-10-29T10:28:07.432Z,19.96999931
2022-10-29T10:29:01.864Z,19.95999908
2022-10-29T10:30:01.048Z,19.95000076
2022-10-29T10:30:56.314Z,19.95999908
2022-10-29T10:31:57.838Z,19.97999954
2022-10-29T10:39:04.464Z,21.54999924
2022-10-29T10:39:58.809Z,21.57999992
2022-10-29T10:40:57.711Z,21.48999977
2022-10-29T10:41:53.384Z,21.35000038
2022-10-29T10:42:52.805Z,21.20000076
2022-10-29T10:43:47.425Z,21.07999992
2022-10-29T10:44:48.772Z,20.98999977
2022-10-29T10:45:46.531Z,20.89999962
2022-10-29T10:46:45.546Z,20.87000084
2022-10-29T10:49:13.498Z,20.82999992
2022-10-29T10:50:06.951Z,20.85000038
2022-10-29T10:51:05.930Z,20.84000015
2022-10-29T10:52:06.309Z,20.79999924
2022-10-29T10:53:02.628Z,20.75
2022-10-29T10:54:04.421Z,20.72999954
2022-10-29T10:54:58.833Z,20.70000076
2022-10-29T10:55:58.247Z,20.67000008
2022-10-29T10:56:57.322Z,20.65999985
2022-10-29T10:58:03.350Z,20.62000084
2022-10-29T10:59:27.813Z,20.61000061
2022-10-29T11:00:10.365Z,20.60000038
2022-10-29T11:01:08.546Z,20.62000084
2022-10-29T11:02:09.906Z,20.63999939
2022-10-29T11:03:07.045Z,20.64999962
2022-10-29T11:04:06.455Z,20.65999985
2022-10-29T11:05:05.171Z,20.64999962
2022-10-29T11:05:08.142Z,20.64999962
2022-10-29T11:06:05.172Z,20.67000008
2022-10-29T11:07:03.233Z,20.68000031
2022-10-29T11:08:02.787Z,20.67000008
2022-10-29T11:09:59.860Z,20.64999962
2022-10-29T11:10:54.971Z,20.63999939
2022-10-29T11:11:59.041Z,20.63999939
2022-10-29T11:12:52.402Z,20.63999939
2022-10-29T11:14:50.979Z,20.65999985
2022-10-29T11:15:52.896Z,20.64999962
2022-10-29T11:16:49.071Z,20.64999962
2022-10-29T11:17:57.163Z,20.64999962
2022-10-29T11:18:52.509Z,20.65999985
2022-10-29T11:19:47.901Z,20.65999985
2022-10-29T11:20:53.429Z,20.67000008
2022-10-29T11:21:46.816Z,20.68000031
2022-10-29T11:22:49.527Z,20.69000053
2022-10-29T11:23:43.011Z,20.71999931
2022-10-29T11:24:41.603Z,20.73999977
2022-10-29T11:25:42.735Z,20.73999977
2022-10-29T11:26:39.133Z,20.75
2022-10-29T11:27:42.060Z,20.75
2022-10-29T11:29:42.174Z,20.76000023
2022-10-29T11:30:44.588Z,20.79000092
2022-10-29T11:31:37.406Z,20.79999924
2022-10-29T11:32:39.975Z,20.82999992
2022-10-29T11:34:35.692Z,20.86000061
2022-10-29T11:35:31.872Z,20.86000061
2022-10-29T11:36:30.797Z,20.87999916
2022-10-29T11:37:29.750Z,20.88999939
2022-10-29T11:39:27.002Z,20.88999939
2022-10-29T11:40:23.656Z,20.90999985
2022-10-29T11:41:20.859Z,20.90999985
2022-10-29T11:42:23.243Z,20.90999985
2022-10-29T11:43:16.674Z,20.93000031
2022-10-29T11:44:17.153Z,20.95000076
2022-10-29T11:45:13.806Z,20.95000076
2022-10-29T11:46:15.662Z,20.95000076
2022-10-29T11:47:44.657Z,20.96999931
2022-10-29T11:49:22.305Z,21.04000092
2022-10-29T11:50:20.511Z,21.05999947
2022-10-29T11:51:19.909Z,21.04999924
2022-10-29T11:52:20.158Z,21.02000046
2022-10-29T11:53:14.914Z,21.03000069
2022-10-29T11:54:20.128Z,21.01000023
2022-10-29T11:55:16.140Z,21
2022-10-29T11:56:15.645Z,20.97999954
2022-10-29T11:57:16.848Z,21
2022-10-29T11:58:15.033Z,21
2022-10-29T11:59:11.550Z,20.98999977
2022-10-29T12:00:10.731Z,21
2022-10-29T12:01:08.623Z,20.98999977
2022-10-29T12:02:06.602Z,21
2022-10-29T12:03:09.533Z,21.02000046
2022-10-29T12:04:03.441Z,21.02000046
2022-10-29T12:05:03.021Z,21.03000069
2022-10-29T12:06:04.537Z,21.04000092
2022-10-29T12:06:57.759Z,21.05999947
2022-10-29T12:08:00.283Z,21.07999992
2022-10-29T12:08:53.937Z,21.10000038
2022-10-29T12:09:55.668Z,21.10000038
2022-10-29T12:10:50.062Z,21.12000084
2022-10-29T12:11:47.954Z,21.11000061
2022-10-29T12:12:49.296Z,21.12000084
2022-10-29T12:13:47.227Z,21.12000084
2022-10-29T12:14:50.987Z,21.11000061
2022-10-29T12:15:46.545Z,21.10000038
2022-10-29T12:16:52.389Z,21.09000015
2022-10-29T12:17:46.502Z,21.11000061
2022-10-29T12:19:43.817Z,21.12000084
2022-10-29T12:21:13.866Z,21.12000084
2022-10-29T12:21:54.441Z,21.14999962
2022-10-29T12:22:53.261Z,21.18000031
2022-10-29T12:24:50.026Z,21.19000053
2022-10-29T12:25:49.984Z,21.19000053
2022-10-29T12:26:45.679Z,21.17000008
2022-10-29T12:27:47.479Z,21.18000031
2022-10-29T12:29:46.245Z,21.19000053
2022-10-29T12:30:40.532Z,21.19000053
2022-10-29T12:31:38.090Z,21.20999908
2022-10-29T12:32:39.081Z,21.20000076
2022-10-29T12:33:35.713Z,21.21999931
2022-10-29T12:34:38.163Z,21.21999931
2022-10-29T12:35:33.294Z,21.23999977
2022-10-29T12:36:32.637Z,21.27000046
2022-10-29T12:37:29.013Z,21.28000069
2022-10-29T12:39:26.187Z,21.30999947
2022-10-29T12:40:27.550Z,21.29999924
2022-10-29T12:42:26.392Z,21.32999992
2022-10-29T12:44:23.088Z,21.39999962
2022-10-29T12:45:18.802Z,21.38999939
2022-10-29T12:46:30.336Z,21.38999939
2022-10-29T12:47:29.160Z,21.37999916
2022-10-29T12:49:30.835Z,21.38999939
2022-10-29T12:50:26.969Z,21.38999939
2022-10-29T12:51:29.489Z,21.38999939
2022-10-29T12:52:23.938Z,21.38999939
2022-10-29T12:54:25.595Z,21.42000008
2022-10-29T12:56:28.499Z,21.61000061
2022-10-29T12:57:13.285Z,21.70000076
2022-10-29T12:57:57.215Z,21.72999954
2022-10-29T12:58:57.720Z,21.75
2022-10-29T12:59:52.961Z,21.70000076
2022-10-29T13:00:52.186Z,21.70000076
2022-10-29T13:02:10.935Z,21.69000053
2022-10-29T13:02:11.733Z,21.69000053
2022-10-29T13:02:13.461Z,21.69000053
2022-10-29T13:02:46.207Z,21.71999931
2022-10-29T13:03:52.082Z,21.75
2022-10-29T13:04:47.821Z,21.75
2022-10-29T13:05:47.146Z,21.71999931
2022-10-29T13:06:47.223Z,21.70999908
2022-10-29T13:07:49.279Z,21.67000008
2022-10-29T13:08:45.806Z,21.65999985
2022-10-29T13:09:48.168Z,21.65999985
2022-10-29T13:09:48.667Z,21.65999985
2022-10-29T13:10:43.650Z,21.68000031
2022-10-29T13:11:45.997Z,21.70000076
2022-10-29T13:12:47.252Z,21.69000053
2022-10-29T13:14:42.629Z,21.64999962
2022-10-29T13:15:37.129Z,21.63999939
2022-10-29T13:16:39.138Z,21.62000084
2022-10-29T13:17:31.504Z,21.62000084
2022-10-29T13:19:26.455Z,21.61000061
2022-10-29T13:20:27.023Z,21.61000061
2022-10-29T13:21:21.662Z,21.60000038
2022-10-29T13:22:23.427Z,21.59000015
2022-10-29T13:23:15.821Z,21.59000015
2022-10-29T13:24:16.903Z,21.57999992
2022-10-29T13:25:09.323Z,21.59000015
2022-10-29T13:26:09.408Z,21.60000038
2022-10-29T13:27:05.395Z,21.63999939
2022-10-29T13:28:06.839Z,21.62999916
2022-10-29T13:30:01.786Z,21.62999916
2022-10-29T13:30:54.498Z,21.62000084
2022-10-29T13:32:04.670Z,21.61000061
2022-10-29T13:32:58.812Z,21.61000061
2022-10-29T13:34:58.413Z,21.63999939
2022-10-29T13:35:53.630Z,21.63999939
2022-10-29T13:36:51.777Z,21.62999916
2022-10-29T13:37:45.985Z,21.62999916
2022-10-29T13:39:42.162Z,21.62999916
2022-10-29T13:40:38.335Z,21.67000008
2022-10-29T13:41:39.485Z,21.68000031
2022-10-29T13:42:32.511Z,21.67000008
2022-10-29T13:43:41.594Z,21.65999985
2022-10-29T13:44:38.404Z,21.65999985
2022-10-29T13:45:40.287Z,21.64999962
2022-10-29T13:46:44.782Z,21.64999962
2022-10-29T13:46:45.739Z,21.64999962
2022-10-29T13:49:25.233Z,21.79999924
2022-10-29T13:50:21.763Z,21.84000015
2022-10-29T13:51:23.859Z,21.81999969
2022-10-29T13:52:15.526Z,21.79999924
2022-10-29T13:53:14.456Z,21.77000046
2022-10-29T13:55:00.350Z,21.79000092
2022-10-29T13:55:41.532Z,21.79999924
2022-10-29T13:56:42.664Z,21.79999924
2022-10-29T13:57:44.591Z,21.78000069
2022-10-29T13:59:51.447Z,21.72999954
2022-10-29T14:00:48.711Z,21.70999908
2022-10-29T14:01:50.138Z,21.67000008
2022-10-29T14:02:46.874Z,21.65999985
2022-10-29T14:04:49.561Z,21.61000061
2022-10-29T14:05:47.734Z,21.59000015
2022-10-29T14:06:49.075Z,21.56999969
2022-10-29T14:07:53.778Z,21.54999924
2022-10-29T14:08:57.362Z,21.54000092
2022-10-29T14:09:51.597Z,21.52000046
2022-10-29T14:10:54.651Z,21.52000046
2022-10-29T14:11:52.052Z,21.51000023
2022-10-29T14:12:54.314Z,21.5
2022-10-29T14:13:51.506Z,21.5
2022-10-29T14:14:56.565Z,21.48999977
2022-10-29T14:16:44.619Z,21.5
2022-10-29T14:17:33.981Z,21.54000092
2022-10-29T14:18:33.122Z,21.56999969
2022-10-29T14:19:34.403Z,21.55999947
2022-10-29T14:20:30.009Z,21.55999947
2022-10-29T14:21:34.908Z,21.54999924
2022-10-29T14:22:32.065Z,21.53000069
2022-10-29T14:23:34.064Z,21.52000046
2022-10-29T14:24:36.712Z,21.51000023
2022-10-29T14:26:03.633Z,21.55999947
2022-10-29T14:27:07.618Z,21.77000046
2022-10-29T14:28:06.374Z,21.87000084
2022-10-29T14:30:02.572Z,21.93000031
2022-10-29T14:30:58.829Z,21.89999962
2022-10-29T14:32:00.526Z,21.85000038
2022-10-29T14:32:55.878Z,21.81999969
2022-10-29T14:33:58.429Z,21.76000023
2022-10-29T14:34:58.790Z,21.70999908
2022-10-29T14:35:52.232Z,21.69000053
2022-10-29T14:36:54.217Z,21.67000008
2022-10-29T14:37:54.990Z,21.64999962
2022-10-29T14:38:54.565Z,21.62000084
2022-10-29T14:39:58.286Z,21.57999992
2022-10-29T14:39:58.302Z,21.57999992
2022-10-29T14:40:52.238Z,21.56999969
2022-10-29T14:41:47.687Z,21.57999992
2022-10-29T14:42:51.302Z,21.55999947
2022-10-29T14:43:47.692Z,21.54999924
2022-10-29T14:44:52.481Z,21.52000046
2022-10-29T14:45:54.623Z,21.47999954
2022-10-29T14:46:55.365Z,21.45000076
2022-10-29T14:47:51.367Z,21.42000008
2022-10-29T14:49:46.979Z,21.37000084
2022-10-29T14:50:47.652Z,21.34000015
2022-10-29T14:51:44.095Z,21.29999924
2022-10-29T14:52:53.386Z,21.28000069
2022-10-29T14:54:41.859Z,21.31999969
2022-10-29T14:55:24.418Z,21.35000038
2022-10-29T14:56:25.419Z,21.35000038
2022-10-29T14:57:31.750Z,21.31999969
2022-10-29T14:59:32.652Z,21.23999977
2022-10-29T15:00:30.322Z,21.20000076
2022-10-29T15:01:31.589Z,21.15999985
2022-10-29T15:02:38.018Z,21.12999916
2022-10-29T15:02:38.472Z,21.12999916
2022-10-29T15:09:31.537Z,22.60000038
2022-10-29T15:10:36.325Z,22.56999969
2022-10-29T15:11:31.700Z,22.44000053
2022-10-29T15:12:34.638Z,22.27000046
2022-10-29T15:14:33.137Z,21.95999908
2022-10-29T15:15:33.533Z,21.84000015
2022-10-29T15:16:39.905Z,21.70000076
2022-10-29T15:16:42.545Z,21.70000076
2022-10-29T15:17:36.807Z,21.62000084
2022-10-29T15:19:33.156Z,21.45999908
2022-10-29T15:20:33.159Z,21.38999939
2022-10-29T15:21:30.518Z,21.34000015
2022-10-29T15:22:28.554Z,21.28000069
2022-10-29T15:23:28.423Z,21.22999954
2022-10-29T15:24:28.986Z,21.19000053
2022-10-29T15:25:31.140Z,21.12999916
2022-10-29T15:26:23.652Z,21.09000015
2022-10-29T15:27:25.956Z,21.06999969
2022-10-29T15:28:18.548Z,21.03000069
2022-10-29T15:31:19.275Z,21.05999947
2022-10-29T15:32:25.117Z,21.04000092
2022-10-29T15:33:24.132Z,21.02000046
2022-10-29T15:35:24.318Z,20.96999931
2022-10-29T15:36:18.517Z,20.94000053
2022-10-29T15:37:18.310Z,20.92000008
2022-10-29T15:38:15.461Z,20.87999916
2022-10-29T15:40:11.522Z,20.80999947
2022-10-29T15:41:16.101Z,20.78000069
2022-10-29T15:42:18.405Z,20.73999977
2022-10-29T15:43:47.951Z,20.72999954
2022-10-29T15:45:32.910Z,20.75
2022-10-29T15:46:32.592Z,20.73999977
2022-10-29T15:47:30.716Z,20.70000076
2022-10-29T15:48:35.988Z,20.67000008
2022-10-29T15:49:32.378Z,20.64999962
2022-10-29T15:50:30.696Z,20.64999962
2022-10-29T15:51:25.988Z,20.62999916
2022-10-29T15:52:27.624Z,20.60000038
2022-10-29T15:53:23.742Z,20.54999924
2022-10-29T15:55:25.997Z,20.52000046
2022-10-29T15:55:27.036Z,20.52000046
2022-10-29T15:56:26.078Z,20.48999977
2022-10-29T15:57:25.859Z,20.5
2022-10-29T15:58:21.092Z,20.47999954
2022-10-29T15:59:20.457Z,20.46999931
2022-10-29T16:00:21.509Z,20.44000053
2022-10-29T16:01:23.638Z,20.39999962
2022-10-29T16:02:23.846Z,20.40999985
2022-10-29T16:03:23.180Z,20.43000031
2022-10-29T16:04:20.452Z,20.44000053
2022-10-29T16:05:23.526Z,20.39999962
2022-10-29T16:06:18.387Z,20.37999916
2022-10-29T16:07:21.189Z,20.35000038
2022-10-29T16:08:16.408Z,20.34000015
2022-10-29T16:10:13.177Z,20.31999969
2022-10-29T16:11:13.549Z,20.30999947
2022-10-29T16:12:11.382Z,20.26000023
2022-10-29T16:13:11.559Z,20.26000023
2022-10-29T16:14:07.913Z,20.25
2022-10-29T16:15:12.551Z,20.22999954
2022-10-29T16:16:06.998Z,20.22999954
2022-10-29T16:17:05.366Z,20.22999954
2022-10-29T16:18:51.719Z,20.30999947
2022-10-29T16:19:35.923Z,20.37000084
2022-10-29T16:20:33.145Z,20.39999962
2022-10-29T16:21:29.743Z,20.38999939
2022-10-29T16:22:35.608Z,20.37999916
2022-10-29T16:23:35.655Z,20.34000015
2022-10-29T16:25:31.009Z,20.29999924
2022-10-29T16:26:31.074Z,20.29999924
2022-10-29T16:27:31.365Z,20.27000046
2022-10-29T16:28:31.224Z,20.27000046
2022-10-29T16:30:35.611Z,20.26000023
2022-10-29T16:31:32.028Z,20.26000023
2022-10-29T16:32:36.037Z,20.23999977
2022-10-29T16:33:28.608Z,20.23999977
2022-10-29T16:34:30.557Z,20.25
2022-10-29T16:35:25.885Z,20.25
2022-10-29T16:36:29.334Z,20.25
2022-10-29T16:37:29.286Z,20.22999954
2022-10-29T16:38:29.295Z,20.22999954